Stow on the Wold, United Kingdom
Current Conditions -  °F | °C
As of 9:50 AM on Sunday 25 Jan 2015 (Local Time) from EGVN Reporting Station
Broken Clouds Broken Clouds  
Wind Chill: 36°   Ceiling: 6000
Heat Index: 36°   Visibility: 6mi
Dew Point: 32°   Wind: 1mph
Humidity: 87%   Direction: 100°E
Pressure: 30.42"   Gusts: NA
Location:  51.93°N, 1.72°W
Report Text: EGVN 250950Z 10001KT 9999 FEW030 BKN060 02/00 Q1030 NOSIG
Loading
Personal Weather Stations






























Interactive Weather Map New forecast layout! Learn more

10-Day Weather Forecast

Advertisements
Track Severe Weather on mobile